Time;durP1;ratioP1;P1;durP2;ratioP2;P2;SDS_P1;SDS_P2;PMS_P1;PMS_P2;Temp;Humidity;BMP_temperature;BMP_pressure;BME280_temperature;BME280_humidity;BME280_pressure;Samples;Min_cycle;Max_cycle;Signal;HPM_P1;HPM_P2
2023/03/10 00:01:13;;;;;;;18.65;8.32;;;6.80;64.40;;;;;;5059001;28;20085;-62
2023/03/10 00:03:39;;;;;;;19.63;9.00;;;6.80;64.30;;;;;;5066713;28;20025;-62
2023/03/10 00:06:05;;;;;;;17.75;7.88;;;6.80;64.40;;;;;;5060785;28;20025;-62
2023/03/10 00:08:31;;;;;;;21.40;8.23;;;6.80;64.40;;;;;;5057221;28;20016;-62
2023/03/10 00:10:56;;;;;;;20.30;9.00;;;6.80;64.30;;;;;;5061303;28;20030;-62
2023/03/10 00:13:22;;;;;;;17.15;7.68;;;6.80;64.50;;;;;;5066312;28;20020;-62
2023/03/10 00:15:48;;;;;;;17.88;7.63;;;6.80;64.40;;;;;;5066140;28;20111;-62
2023/03/10 00:18:14;;;;;;;14.82;6.85;;;6.80;64.50;;;;;;5057490;28;20040;-62
2023/03/10 00:20:39;;;;;;;12.75;6.60;;;6.80;64.40;;;;;;5063354;28;20033;-63
2023/03/10 00:23:05;;;;;;;16.35;5.85;;;6.80;64.70;;;;;;5067947;28;20039;-62
2023/03/10 00:25:31;;;;;;;15.02;6.70;;;6.80;64.90;;;;;;5048359;28;20067;-62
2023/03/10 00:27:57;;;;;;;16.40;5.85;;;6.80;65.10;;;;;;5060587;28;20021;-62
2023/03/10 00:30:22;;;;;;;12.60;6.22;;;6.80;65.30;;;;;;5062432;28;20025;-62
2023/03/10 00:32:49;;;;;;;14.27;5.80;;;6.80;65.50;;;;;;5062183;28;20081;-62
2023/03/10 00:35:15;;;;;;;9.10;5.03;;;6.80;65.50;;;;;;5068372;28;20493;-62
2023/03/10 00:37:41;;;;;;;19.00;6.05;;;6.90;65.50;;;;;;5055457;28;20475;-62
2023/03/10 00:40:11;;;;;;;13.20;5.57;;;6.90;65.60;;;;;;5061154;28;20044;-62
2023/03/10 00:42:36;;;;;;;14.13;4.90;;;6.90;65.60;;;;;;5060473;28;20028;-62
2023/03/10 00:45:02;;;;;;;13.43;5.63;;;6.90;65.60;;;;;;5064360;28;20017;-62
2023/03/10 00:47:28;;;;;;;11.43;5.15;;;7.00;65.60;;;;;;5064683;28;20025;-63
2023/03/10 00:49:53;;;;;;;11.55;5.07;;;7.00;65.50;;;;;;5066514;28;20029;-63
2023/03/10 00:52:19;;;;;;;15.27;4.93;;;7.00;65.50;;;;;;5059046;28;20020;-63
2023/03/10 00:54:45;;;;;;;11.18;4.60;;;7.00;65.40;;;;;;5065077;28;20025;-63
2023/03/10 00:57:10;;;;;;;10.52;4.55;;;7.00;65.40;;;;;;5059993;28;20260;-63
2023/03/10 00:59:36;;;;;;;9.30;4.07;;;7.10;65.40;;;;;;5064725;28;20095;-63
2023/03/10 01:02:02;;;;;;;7.57;3.40;;;7.00;65.40;;;;;;5058122;28;20036;-62
2023/03/10 01:04:27;;;;;;;5.35;3.28;;;7.10;65.50;;;;;;5066253;28;20028;-63
2023/03/10 01:06:53;;;;;;;9.15;3.53;;;7.00;65.50;;;;;;5065542;28;20036;-62
2023/03/10 01:09:19;;;;;;;6.60;2.80;;;7.10;65.70;;;;;;5059899;28;20033;-62
2023/03/10 01:11:44;;;;;;;11.02;3.33;;;7.10;65.80;;;;;;5062109;28;20464;-63
2023/03/10 01:14:13;;;;;;;6.68;3.10;;;7.10;65.90;;;;;;5067992;28;20051;-63
2023/03/10 01:16:38;;;;;;;6.85;3.25;;;7.10;66.00;;;;;;5066605;28;20029;-62
2023/03/10 01:19:05;;;;;;;7.97;3.53;;;7.10;65.90;;;;;;5068237;28;20039;-62
2023/03/10 01:21:34;;;;;;;10.32;3.42;;;7.10;66.00;;;;;;5065656;28;20395;-62
2023/03/10 01:24:00;;;;;;;7.22;3.45;;;7.20;66.20;;;;;;5057427;28;20021;-62
2023/03/10 01:26:26;;;;;;;14.30;4.05;;;7.20;66.20;;;;;;5063344;28;20521;-62
2023/03/10 01:28:51;;;;;;;8.82;3.85;;;7.20;66.20;;;;;;5061989;28;20103;-62
2023/03/10 01:31:18;;;;;;;7.93;3.65;;;7.20;66.20;;;;;;5065565;28;20096;-62
2023/03/10 01:33:45;;;;;;;9.70;3.80;;;7.10;66.20;;;;;;5074407;28;20112;-62
2023/03/10 01:36:14;;;;;;;9.77;4.20;;;7.20;66.30;;;;;;5062539;28;20056;-62
2023/03/10 01:38:41;;;;;;;9.50;4.13;;;7.30;66.30;;;;;;5069326;28;20425;-62
2023/03/10 01:41:07;;;;;;;6.38;3.67;;;7.30;66.20;;;;;;5059564;28;20099;-62
2023/03/10 01:43:35;;;;;;;11.35;4.97;;;7.30;66.10;;;;;;5063889;28;20026;-62
2023/03/10 01:46:01;;;;;;;14.27;6.60;;;7.30;66.30;;;;;;5063840;28;20037;-62
2023/03/10 01:48:30;;;;;;;11.98;5.97;;;7.40;66.40;;;;;;5066404;28;20021;-63
2023/03/10 01:50:56;;;;;;;12.25;5.45;;;7.40;66.40;;;;;;5063378;28;20020;-62
2023/03/10 01:53:24;;;;;;;10.95;5.63;;;7.40;66.00;;;;;;5061768;28;20047;-62
2023/03/10 01:56:02;;;;;;;13.23;5.38;;;7.40;66.10;;;;;;5059958;28;20468;-62
2023/03/10 01:58:35;;;;;;;12.23;5.72;;;7.40;66.60;;;;;;5062374;28;20036;-62
2023/03/10 02:01:01;;;;;;;9.82;5.00;;;7.40;66.40;;;;;;5068370;28;20017;-61
2023/03/10 02:03:35;;;;;;;11.52;4.80;;;7.40;66.30;;;;;;5052968;28;20029;-62
2023/03/10 02:06:05;;;;;;;11.68;4.88;;;7.50;66.70;;;;;;5059227;28;20017;-62
2023/03/10 02:08:36;;;;;;;13.35;5.20;;;7.50;66.40;;;;;;5060588;28;20036;-62
2023/03/10 02:11:03;;;;;;;12.63;5.28;;;7.50;66.50;;;;;;5058962;28;20051;-62
2023/03/10 02:13:29;;;;;;;9.18;4.60;;;7.50;66.40;;;;;;5051801;28;20029;-62
2023/03/10 02:15:54;;;;;;;9.82;5.38;;;7.50;66.40;;;;;;5064140;28;20085;-62
2023/03/10 02:18:21;;;;;;;17.92;5.25;;;7.60;66.60;;;;;;5061080;28;20029;-62
2023/03/10 02:21:05;;;;;;;7.00;4.60;;;7.60;66.60;;;;;;5059213;28;20043;-61
2023/03/10 02:23:50;;;;;;;12.68;4.70;;;7.60;66.60;;;;;;5069683;28;20029;-62
2023/03/10 02:26:25;;;;;;;9.23;4.85;;;7.60;66.40;;;;;;5055730;28;20021;-65
2023/03/10 02:28:53;;;;;;;10.77;5.07;;;7.70;66.50;;;;;;5056906;28;20033;-61
2023/03/10 02:31:20;;;;;;;9.98;4.82;;;7.70;66.40;;;;;;5062059;28;20029;-60
2023/03/10 02:33:46;;;;;;;12.88;5.25;;;7.70;66.50;;;;;;5056474;28;20048;-62
2023/03/10 02:36:16;;;;;;;10.13;5.28;;;7.70;66.60;;;;;;5058135;28;20029;-60
2023/03/10 02:38:41;;;;;;;13.88;5.47;;;7.70;66.70;;;;;;5054293;28;20048;-62
2023/03/10 02:41:38;;;;;;;10.57;4.93;;;7.70;66.60;;;;;;5058973;28;20020;-62
2023/03/10 02:44:07;;;;;;;9.95;4.68;;;7.70;67.50;;;;;;5058524;28;20048;-62
2023/03/10 02:46:33;;;;;;;12.52;4.80;;;7.70;66.40;;;;;;5063150;28;20084;-61
2023/03/10 02:49:00;;;;;;;15.73;5.93;;;7.70;66.50;;;;;;5063000;28;20020;-62
2023/03/10 02:51:30;;;;;;;14.02;4.78;;;7.70;66.70;;;;;;5064923;28;20047;-61
2023/03/10 02:53:56;;;;;;;10.13;4.72;;;7.70;66.90;;;;;;5063518;28;20029;-61
2023/03/10 02:56:22;;;;;;;10.75;4.95;;;7.80;67.00;;;;;;5061645;28;20044;-62
2023/03/10 02:58:47;;;;;;;9.95;4.80;;;7.80;67.00;;;;;;5057544;28;20431;-63
2023/03/10 03:01:13;;;;;;;14.18;4.85;;;7.80;67.00;;;;;;5059127;28;20218;-62
2023/03/10 03:03:39;;;;;;;11.70;4.80;;;7.80;67.00;;;;;;5062788;28;20033;-62
2023/03/10 03:06:05;;;;;;;9.63;4.75;;;7.90;67.10;;;;;;5062887;28;20028;-62
2023/03/10 03:08:32;;;;;;;10.65;5.05;;;7.90;67.20;;;;;;5061895;28;20028;-63
2023/03/10 03:10:58;;;;;;;10.57;4.45;;;7.90;67.30;;;;;;5063357;28;20025;-62
2023/03/10 03:13:23;;;;;;;11.63;4.43;;;7.90;67.40;;;;;;5059791;28;20029;-62
2023/03/10 03:15:49;;;;;;;11.18;4.22;;;8.00;67.40;;;;;;5051421;28;20029;-62
2023/03/10 03:18:15;;;;;;;10.38;4.78;;;8.00;67.40;;;;;;5048625;28;20101;-62
2023/03/10 03:20:41;;;;;;;13.60;5.18;;;8.00;67.40;;;;;;5070321;28;20033;-63
2023/03/10 03:23:07;;;;;;;7.32;4.38;;;8.00;67.50;;;;;;5061235;28;20032;-62
2023/03/10 03:25:35;;;;;;;10.75;4.38;;;8.10;67.50;;;;;;5047950;28;20056;-61
2023/03/10 03:28:04;;;;;;;8.35;3.28;;;8.10;67.50;;;;;;5062054;28;20033;-62
2023/03/10 03:30:30;;;;;;;3.20;1.85;;;8.10;67.40;;;;;;5060678;28;20021;-61
2023/03/10 03:32:55;;;;;;;4.07;1.80;;;8.10;67.70;;;;;;5061248;28;20037;-63
2023/03/10 03:35:27;;;;;;;6.30;1.60;;;8.20;68.10;;;;;;5066271;28;20032;-62
2023/03/10 03:37:54;;;;;;;5.15;1.50;;;8.30;69.10;;;;;;5064798;28;20438;-62
2023/03/10 03:40:21;;;;;;;6.25;2.47;;;8.40;69.60;;;;;;5064679;28;20025;-62
2023/03/10 03:42:49;;;;;;;3.85;2.00;;;8.50;69.30;;;;;;5059990;28;20049;-63
2023/03/10 03:45:16;;;;;;;4.60;1.10;;;8.70;69.90;;;;;;5066025;28;20055;-63
2023/03/10 03:47:43;;;;;;;1.52;1.00;;;8.80;69.70;;;;;;5066437;28;20025;-63
2023/03/10 03:50:12;;;;;;;2.60;1.40;;;9.00;69.70;;;;;;5061559;28;20449;-62
2023/03/10 03:52:38;;;;;;;1.63;0.90;;;9.10;70.10;;;;;;5062013;28;20024;-62
2023/03/10 03:55:04;;;;;;;1.42;0.82;;;9.20;69.70;;;;;;5065804;28;20033;-62
2023/03/10 03:57:30;;;;;;;1.85;0.80;;;9.30;69.80;;;;;;5066223;28;20044;-61
2023/03/10 03:59:56;;;;;;;2.03;0.90;;;9.40;69.50;;;;;;5061558;28;20025;-62
2023/03/10 04:02:22;;;;;;;4.75;1.30;;;9.50;69.40;;;;;;5061116;28;20032;-62
2023/03/10 04:04:47;;;;;;;4.53;1.58;;;9.60;69.20;;;;;;5065971;28;20085;-62
2023/03/10 04:07:13;;;;;;;3.35;1.33;;;9.70;69.50;;;;;;5058845;28;20080;-61
2023/03/10 04:09:40;;;;;;;1.88;1.10;;;9.80;69.40;;;;;;5063976;28;20017;-63
2023/03/10 04:12:08;;;;;;;1.25;0.75;;;9.80;69.10;;;;;;5073138;28;20105;-62
2023/03/10 04:14:34;;;;;;;1.92;1.10;;;9.90;68.80;;;;;;5067771;28;20020;-61
2023/03/10 04:17:00;;;;;;;1.33;0.90;;;10.00;68.80;;;;;;5068768;28;20368;-61
2023/03/10 04:19:26;;;;;;;0.80;0.80;;;10.00;68.70;;;;;;5063709;28;20033;-63
2023/03/10 04:21:52;;;;;;;0.80;0.80;;;10.10;68.80;;;;;;5061765;28;20509;-62
2023/03/10 04:24:17;;;;;;;1.10;0.70;;;10.10;68.90;;;;;;5066093;28;20282;-61
2023/03/10 04:26:43;;;;;;;1.60;0.75;;;10.20;68.70;;;;;;5066566;28;20272;-61
2023/03/10 04:29:09;;;;;;;1.33;0.70;;;10.30;68.80;;;;;;5071722;28;20028;-62
2023/03/10 04:31:35;;;;;;;0.65;0.65;;;10.30;68.80;;;;;;5071174;28;20055;-62
2023/03/10 04:34:01;;;;;;;1.20;0.70;;;10.40;68.90;;;;;;5060428;28;20044;-63
2023/03/10 04:36:26;;;;;;;1.05;0.68;;;10.40;68.80;;;;;;5069133;28;20037;-62
2023/03/10 04:38:52;;;;;;;4.22;0.80;;;10.40;68.90;;;;;;5066304;28;20086;-63
2023/03/10 04:41:18;;;;;;;3.42;0.95;;;10.50;68.70;;;;;;5063595;28;20020;-63
2023/03/10 04:43:44;;;;;;;0.98;0.70;;;10.50;68.70;;;;;;5063336;28;20033;-63
2023/03/10 04:46:10;;;;;;;1.30;0.80;;;10.50;69.20;;;;;;5066061;28;20060;-63
2023/03/10 04:48:36;;;;;;;1.90;0.80;;;10.50;69.60;;;;;;5066573;28;20043;-62
2023/03/10 04:51:07;;;;;;;1.05;0.65;;;10.50;68.80;;;;;;5065760;28;20085;-62
2023/03/10 04:53:33;;;;;;;1.02;0.63;;;10.60;69.00;;;;;;5067575;28;20047;-61
2023/03/10 04:56:01;;;;;;;1.95;0.80;;;10.60;68.50;;;;;;5065949;28;20022;-61
2023/03/10 04:58:26;;;;;;;2.80;0.70;;;10.60;68.50;;;;;;5068443;28;20048;-61
2023/03/10 05:00:52;;;;;;;1.08;0.77;;;10.60;68.80;;;;;;5063985;28;20404;-62
2023/03/10 05:03:18;;;;;;;1.48;0.95;;;10.60;68.60;;;;;;5063429;28;20025;-61
2023/03/10 05:05:44;;;;;;;2.13;1.10;;;10.60;68.80;;;;;;5070546;28;20017;-64
2023/03/10 05:08:09;;;;;;;0.70;0.63;;;10.60;68.80;;;;;;5060210;28;20036;-64
2023/03/10 05:10:38;;;;;;;0.70;0.68;;;10.60;68.90;;;;;;5066564;28;20402;-63
2023/03/10 05:13:04;;;;;;;1.58;1.13;;;10.60;68.70;;;;;;5062286;28;20025;-64
2023/03/10 05:15:33;;;;;;;1.52;0.95;;;10.60;68.70;;;;;;5059668;28;20036;-64
2023/03/10 05:17:59;;;;;;;0.75;0.70;;;10.60;69.10;;;;;;5070606;28;20044;-64
2023/03/10 05:20:25;;;;;;;1.00;0.80;;;10.60;68.80;;;;;;5071131;28;20357;-63
2023/03/10 05:22:50;;;;;;;2.70;1.00;;;10.60;68.70;;;;;;5067078;28;20076;-64
2023/03/10 05:25:16;;;;;;;1.08;0.60;;;10.60;69.20;;;;;;5055045;28;20508;-63
2023/03/10 05:27:42;;;;;;;1.30;0.90;;;10.60;68.90;;;;;;5061884;28;20025;-61
2023/03/10 05:30:10;;;;;;;0.65;0.65;;;10.60;68.60;;;;;;5060408;28;20043;-62
2023/03/10 05:32:36;;;;;;;1.42;0.80;;;10.60;68.90;;;;;;5063477;28;20051;-62
2023/03/10 05:35:03;;;;;;;0.90;0.65;;;10.60;68.60;;;;;;5060779;28;20032;-61
2023/03/10 05:37:29;;;;;;;0.63;0.63;;;10.60;68.70;;;;;;5065007;28;20043;-62
2023/03/10 05:39:55;;;;;;;0.77;0.73;;;10.60;68.60;;;;;;5072649;28;20032;-62
2023/03/10 05:42:21;;;;;;;0.73;0.73;;;10.60;68.60;;;;;;5072066;28;20028;-61
2023/03/10 05:44:46;;;;;;;1.77;1.00;;;10.60;69.00;;;;;;5061315;28;20036;-61
2023/03/10 05:47:17;;;;;;;0.80;0.80;;;10.50;69.20;;;;;;5064347;28;20021;-64
2023/03/10 05:49:44;;;;;;;1.60;0.98;;;10.50;69.00;;;;;;5071278;28;20063;-61
2023/03/10 05:52:10;;;;;;;1.15;0.90;;;10.50;68.90;;;;;;5067023;28;20029;-61
2023/03/10 05:54:36;;;;;;;1.10;0.95;;;10.50;69.40;;;;;;5067152;28;20036;-61
2023/03/10 05:57:01;;;;;;;1.23;0.90;;;10.50;69.40;;;;;;5064485;28;20033;-61
2023/03/10 05:59:27;;;;;;;1.58;0.82;;;10.50;69.20;;;;;;5067285;28;20021;-63
2023/03/10 06:01:53;;;;;;;1.67;0.77;;;10.50;69.10;;;;;;5064181;28;20072;-62
2023/03/10 06:04:18;;;;;;;1.52;0.80;;;10.40;69.20;;;;;;5063027;28;20519;-61
2023/03/10 06:06:44;;;;;;;1.20;0.70;;;10.40;69.30;;;;;;5064055;28;20071;-63
2023/03/10 06:09:10;;;;;;;0.70;0.60;;;10.40;69.50;;;;;;5060959;28;20021;-63
2023/03/10 06:11:35;;;;;;;1.75;0.80;;;10.40;69.80;;;;;;5078138;28;20051;-63
2023/03/10 06:14:01;;;;;;;1.13;1.00;;;10.40;69.90;;;;;;5061058;28;20363;-64
2023/03/10 06:16:27;;;;;;;0.93;0.80;;;10.40;69.50;;;;;;5061892;28;20040;-63
2023/03/10 06:18:54;;;;;;;1.02;0.85;;;10.50;69.90;;;;;;5062950;28;20025;-63
2023/03/10 06:21:21;;;;;;;1.15;0.70;;;10.50;69.70;;;;;;5060183;28;20029;-63
2023/03/10 06:23:46;;;;;;;1.25;0.70;;;10.50;69.50;;;;;;5055244;28;20028;-63
2023/03/10 06:26:15;;;;;;;0.77;0.57;;;10.50;69.80;;;;;;5077234;28;20079;-63
2023/03/10 06:28:43;;;;;;;2.25;0.73;;;10.50;70.00;;;;;;5071844;28;20550;-63
2023/03/10 06:31:13;;;;;;;0.60;0.60;;;10.50;70.10;;;;;;5056775;28;20021;-62
2023/03/10 06:33:39;;;;;;;0.60;0.60;;;10.60;69.70;;;;;;5071329;28;20049;-62
2023/03/10 06:36:07;;;;;;;0.75;0.75;;;10.60;69.70;;;;;;5065193;28;20031;-63
2023/03/10 06:38:33;;;;;;;1.50;0.70;;;10.60;69.60;;;;;;5061740;28;20693;-64
2023/03/10 06:40:58;;;;;;;2.30;0.65;;;10.60;69.60;;;;;;5062258;28;20021;-64
2023/03/10 06:43:24;;;;;;;0.75;0.60;;;10.60;69.70;;;;;;5059993;28;20120;-61
2023/03/10 06:45:50;;;;;;;0.60;0.60;;;10.70;69.70;;;;;;5060649;28;20025;-63
2023/03/10 06:48:16;;;;;;;0.50;0.50;;;10.70;70.10;;;;;;5067366;28;20084;-61
2023/03/10 06:50:43;;;;;;;0.93;0.50;;;10.70;70.00;;;;;;5068565;28;20111;-63
2023/03/10 06:53:10;;;;;;;2.58;0.80;;;10.70;69.80;;;;;;5065809;28;20024;-62
2023/03/10 06:55:37;;;;;;;2.03;0.50;;;10.80;69.90;;;;;;5068337;28;20064;-61
2023/03/10 06:58:02;;;;;;;2.33;0.65;;;10.80;70.50;;;;;;5058245;28;20423;-61
2023/03/10 07:00:29;;;;;;;5.88;0.90;;;10.80;69.60;;;;;;5069644;28;20025;-62
2023/03/10 07:02:54;;;;;;;2.55;0.90;;;10.80;70.00;;;;;;5067209;28;20027;-61
2023/03/10 07:05:21;;;;;;;2.45;0.95;;;10.80;69.90;;;;;;5071046;28;20024;-61
2023/03/10 07:07:49;;;;;;;2.83;1.42;;;10.80;69.70;;;;;;5061860;28;20029;-63
2023/03/10 07:10:15;;;;;;;2.70;1.50;;;10.80;69.60;;;;;;5057391;28;20052;-61
2023/03/10 07:12:42;;;;;;;3.65;2.00;;;10.90;69.90;;;;;;5061483;28;20108;-61
2023/03/10 07:15:09;;;;;;;4.03;1.80;;;10.90;69.90;;;;;;5063838;28;20036;-61
2023/03/10 07:17:34;;;;;;;1.90;1.00;;;10.90;69.70;;;;;;5063150;28;20037;-62
2023/03/10 07:20:00;;;;;;;3.15;1.20;;;10.90;69.90;;;;;;5059515;28;20076;-60
2023/03/10 07:22:26;;;;;;;1.60;0.90;;;10.90;69.60;;;;;;5063189;28;20047;-62
2023/03/10 07:24:55;;;;;;;2.25;1.30;;;10.90;69.70;;;;;;5052241;28;20054;-61
2023/03/10 07:27:22;;;;;;;3.17;1.52;;;10.90;69.70;;;;;;5059817;28;20037;-61
2023/03/10 07:29:47;;;;;;;4.53;2.00;;;10.90;69.60;;;;;;5067333;28;20082;-62
2023/03/10 07:32:14;;;;;;;4.15;1.92;;;10.90;69.80;;;;;;5056636;28;20052;-61
2023/03/10 07:34:40;;;;;;;3.80;1.50;;;11.00;69.70;;;;;;5068255;28;20028;-61
2023/03/10 07:37:06;;;;;;;2.25;1.42;;;11.00;69.70;;;;;;5067808;28;20037;-62
2023/03/10 07:39:31;;;;;;;1.50;1.00;;;11.10;70.00;;;;;;5057686;28;20053;-62
2023/03/10 07:41:58;;;;;;;1.38;1.00;;;11.10;69.90;;;;;;5065056;28;20127;-61
2023/03/10 07:44:24;;;;;;;0.70;0.68;;;11.20;69.90;;;;;;5073129;28;20476;-61
2023/03/10 07:46:50;;;;;;;0.82;0.73;;;11.30;69.90;;;;;;5071103;28;20052;-63
2023/03/10 07:49:15;;;;;;;2.58;0.80;;;11.40;69.60;;;;;;5066675;28;20527;-62
2023/03/10 07:51:41;;;;;;;1.48;0.93;;;11.60;69.60;;;;;;5072874;28;20115;-63
2023/03/10 07:54:07;;;;;;;1.73;0.82;;;11.70;69.50;;;;;;5069711;28;20083;-62
2023/03/10 07:56:32;;;;;;;0.82;0.70;;;11.80;69.70;;;;;;5066997;28;20045;-62
2023/03/10 07:58:59;;;;;;;1.52;0.75;;;12.00;69.60;;;;;;5070192;28;20071;-62
2023/03/10 08:01:25;;;;;;;2.17;0.80;;;12.20;69.40;;;;;;5069739;28;20063;-62
2023/03/10 08:03:51;;;;;;;1.52;0.68;;;12.40;69.40;;;;;;5075557;28;20487;-62
2023/03/10 08:06:23;;;;;;;0.88;0.70;;;12.60;68.80;;;;;;5071058;28;20281;-61
2023/03/10 08:08:49;;;;;;;2.03;0.90;;;12.80;68.20;;;;;;5066187;28;20017;-63
2023/03/10 08:11:15;;;;;;;2.35;0.98;;;13.00;67.60;;;;;;5067471;28;20056;-61
2023/03/10 08:13:40;;;;;;;1.42;0.90;;;13.10;67.20;;;;;;5074469;28;20033;-62
2023/03/10 08:16:07;;;;;;;4.25;0.88;;;13.20;66.80;;;;;;5063930;28;20021;-62
2023/03/10 08:18:33;;;;;;;1.55;0.85;;;13.30;66.40;;;;;;5073412;28;20028;-61
2023/03/10 08:21:03;;;;;;;1.92;0.80;;;13.40;66.00;;;;;;5069279;28;20047;-64
2023/03/10 08:23:29;;;;;;;3.72;0.95;;;13.40;65.40;;;;;;5071096;28;20036;-61
2023/03/10 08:25:59;;;;;;;1.00;0.60;;;13.40;65.00;;;;;;5072542;28;20040;-61
2023/03/10 08:28:27;;;;;;;1.58;0.73;;;13.50;64.80;;;;;;5065279;28;20055;-61
2023/03/10 08:30:53;;;;;;;1.17;0.70;;;13.50;64.70;;;;;;5074733;28;20048;-61
2023/03/10 08:33:20;;;;;;;1.52;0.70;;;13.40;64.50;;;;;;5071347;28;20045;-62
2023/03/10 08:35:46;;;;;;;2.10;0.90;;;13.40;64.30;;;;;;5079245;28;20023;-62
2023/03/10 08:38:12;;;;;;;1.50;0.80;;;13.40;64.30;;;;;;5068797;28;20399;-61
2023/03/10 08:40:38;;;;;;;1.35;0.80;;;13.40;64.20;;;;;;5069094;28;20036;-61
2023/03/10 08:43:05;;;;;;;1.40;0.80;;;13.40;64.20;;;;;;5066164;28;20028;-61
2023/03/10 08:45:31;;;;;;;2.00;1.05;;;13.40;64.10;;;;;;5056008;28;20092;-62
2023/03/10 08:47:56;;;;;;;2.85;0.75;;;13.40;63.80;;;;;;5071665;28;20473;-62
2023/03/10 08:50:22;;;;;;;0.95;0.70;;;13.40;63.40;;;;;;5063728;28;20017;-63
2023/03/10 08:52:48;;;;;;;1.10;0.75;;;13.30;63.40;;;;;;5075490;28;20484;-63
2023/03/10 08:55:13;;;;;;;1.13;0.60;;;13.30;63.20;;;;;;5065343;28;20055;-60
2023/03/10 08:57:39;;;;;;;2.50;0.63;;;13.30;63.20;;;;;;5065012;28;20495;-61
2023/03/10 09:00:06;;;;;;;1.58;0.60;;;13.30;63.10;;;;;;5052392;28;20734;-61
2023/03/10 09:02:32;;;;;;;1.35;0.80;;;13.20;63.00;;;;;;5053122;28;20561;-63
2023/03/10 09:04:58;;;;;;;2.63;0.75;;;13.20;62.80;;;;;;5065212;28;20028;-64
2023/03/10 09:07:24;;;;;;;1.30;0.60;;;13.20;62.90;;;;;;5071215;28;20609;-62
2023/03/10 09:09:50;;;;;;;0.73;0.65;;;13.20;62.80;;;;;;5065963;28;20103;-62
2023/03/10 09:12:15;;;;;;;1.83;0.70;;;13.20;62.90;;;;;;5051438;28;20029;-61
2023/03/10 09:14:41;;;;;;;2.75;0.90;;;13.20;62.80;;;;;;5055773;28;20021;-61
2023/03/10 09:17:07;;;;;;;1.05;0.75;;;13.10;62.50;;;;;;5067974;28;20040;-62
2023/03/10 09:19:32;;;;;;;1.20;0.80;;;13.20;62.60;;;;;;5060608;28;20029;-61
2023/03/10 09:21:58;;;;;;;0.90;0.73;;;13.20;62.60;;;;;;5066383;28;20027;-62
2023/03/10 09:24:24;;;;;;;1.58;0.82;;;13.20;62.40;;;;;;5065029;28;20035;-61
2023/03/10 09:26:49;;;;;;;1.75;0.70;;;13.20;62.40;;;;;;5071203;28;20101;-61
2023/03/10 09:29:16;;;;;;;1.55;0.60;;;13.10;62.10;;;;;;5071546;28;20046;-63
2023/03/10 09:31:42;;;;;;;0.60;0.60;;;13.10;62.10;;;;;;5069292;28;20017;-61
2023/03/10 09:34:10;;;;;;;1.20;0.70;;;13.10;61.50;;;;;;5068025;28;20050;-63
2023/03/10 09:36:36;;;;;;;0.95;0.65;;;13.10;61.80;;;;;;5066579;28;20056;-61
2023/03/10 09:39:03;;;;;;;0.77;0.50;;;13.10;61.70;;;;;;5064032;28;20044;-62
2023/03/10 09:42:01;;;;;;;0.50;0.50;;;13.10;61.40;;;;;;5066294;28;20025;-61
2023/03/10 09:44:41;;;;;;;0.50;0.50;;;13.10;61.10;;;;;;5057342;28;20038;-61
2023/03/10 09:47:44;;;;;;;0.50;0.50;;;13.10;60.90;;;;;;5070799;28;20099;-62
2023/03/10 09:50:28;;;;;;;0.40;0.40;;;13.10;60.70;;;;;;5065434;28;20391;-61
2023/03/10 09:53:21;;;;;;;0.73;0.50;;;13.20;61.40;;;;;;5070669;28;20029;-63
2023/03/10 09:55:47;;;;;;;0.52;0.52;;;13.20;61.20;;;;;;5067178;28;20024;-62
2023/03/10 09:58:26;;;;;;;2.80;0.55;;;13.30;61.50;;;;;;5065348;28;20032;-62
2023/03/10 10:00:51;;;;;;;0.60;0.50;;;13.30;61.00;;;;;;5060772;28;20028;-62
2023/03/10 10:03:26;;;;;;;1.17;0.50;;;13.40;60.80;;;;;;5070590;28;20077;-61
2023/03/10 10:05:55;;;;;;;2.63;0.50;;;13.40;60.40;;;;;;5072940;28;20020;-62
2023/03/10 10:08:28;;;;;;;0.90;0.50;;;13.40;60.20;;;;;;5067610;28;20391;-61
2023/03/10 10:10:57;;;;;;;1.10;0.60;;;13.40;60.20;;;;;;5066195;28;20056;-63
2023/03/10 10:13:26;;;;;;;1.25;0.70;;;13.40;60.50;;;;;;5068838;28;20025;-62
2023/03/10 10:16:07;;;;;;;2.85;0.68;;;13.40;60.20;;;;;;5063018;28;20043;-63
2023/03/10 10:18:41;;;;;;;2.78;0.63;;;13.40;60.10;;;;;;5064140;28;20029;-61
2023/03/10 10:21:21;;;;;;;1.33;0.60;;;13.50;60.30;;;;;;5064296;28;20578;-61
2023/03/10 10:23:50;;;;;;;2.10;0.55;;;13.50;60.10;;;;;;5060607;28;20078;-61
2023/03/10 10:26:22;;;;;;;9.65;0.80;;;13.60;59.80;;;;;;5060572;28;20035;-62
2023/03/10 10:28:57;;;;;;;2.28;0.50;;;13.70;59.70;;;;;;5063766;28;20021;-60
2023/03/10 10:31:29;;;;;;;2.72;0.88;;;13.70;60.10;;;;;;5052437;28;20017;-61
2023/03/10 10:34:04;;;;;;;3.33;0.77;;;13.80;60.10;;;;;;5052283;28;20068;-61
2023/03/10 10:36:34;;;;;;;1.67;0.50;;;13.90;59.50;;;;;;5058397;28;20136;-62
2023/03/10 10:39:00;;;;;;;1.52;0.50;;;14.00;59.10;;;;;;5061299;28;20043;-62
2023/03/10 10:41:32;;;;;;;1.05;0.57;;;14.00;58.90;;;;;;5061922;28;20029;-62
2023/03/10 10:44:14;;;;;;;0.50;0.50;;;14.00;58.50;;;;;;5058363;28;20016;-61
2023/03/10 10:46:53;;;;;;;2.85;0.73;;;14.00;58.20;;;;;;5061846;28;20039;-63
2023/03/10 10:49:26;;;;;;;1.80;0.60;;;13.90;58.30;;;;;;5064219;28;20024;-61
2023/03/10 10:52:01;;;;;;;1.00;0.60;;;13.90;58.40;;;;;;5060070;28;20029;-62
2023/03/10 10:54:36;;;;;;;2.05;0.55;;;13.80;58.00;;;;;;5067696;28;20056;-61
2023/03/10 10:57:02;;;;;;;;;;;13.70;58.10;;;;;;5059237;28;20052;-63
2023/03/10 10:59:32;;;;;;;1.50;0.50;;;13.70;58.30;;;;;;5062388;28;19909;-62
2023/03/10 11:01:59;;;;;;;1.50;0.70;;;13.60;58.60;;;;;;5062809;28;20032;-62
2023/03/10 11:04:28;;;;;;;2.83;0.70;;;13.60;59.00;;;;;;5066629;28;20017;-63
2023/03/10 11:07:16;;;;;;;0.60;0.50;;;13.60;59.20;;;;;;5061796;28;20025;-62
2023/03/10 11:09:41;;;;;;;4.35;0.90;;;13.60;58.90;;;;;;5060959;28;20060;-62
2023/03/10 11:12:20;;;;;;;1.60;0.60;;;13.70;59.20;;;;;;5062476;28;20032;-62
2023/03/10 11:15:08;;;;;;;1.85;0.73;;;13.70;59.10;;;;;;5066225;28;20111;-62
2023/03/10 11:17:37;;;;;;;0.88;0.60;;;13.80;58.50;;;;;;5065103;28;20037;-64
2023/03/10 11:20:25;;;;;;;1.63;0.60;;;13.90;58.50;;;;;;5070261;28;20029;-64
2023/03/10 11:23:16;;;;;;;1.08;0.55;;;13.90;58.60;;;;;;5064842;28;20021;-63
2023/03/10 11:26:07;;;;;;;3.20;0.90;;;14.00;57.80;;;;;;5054754;28;20032;-63
2023/03/10 11:28:52;;;;;;;2.17;0.85;;;14.00;58.00;;;;;;5064011;28;20107;-61
2023/03/10 11:31:58;;;;;;;1.50;0.80;;;14.10;57.90;;;;;;5065631;28;20102;-62
2023/03/10 11:34:31;;;;;;;3.83;1.15;;;14.10;57.70;;;;;;5061675;28;20056;-63
2023/03/10 11:37:23;;;;;;;3.67;0.90;;;14.10;57.90;;;;;;5067746;28;20127;-62
2023/03/10 11:39:52;;;;;;;3.00;1.00;;;14.20;57.70;;;;;;5094518;28;20029;-61
2023/03/10 11:42:33;;;;;;;2.25;0.77;;;14.30;58.00;;;;;;5058813;28;20021;-63
2023/03/10 11:45:15;;;;;;;2.97;0.60;;;14.30;57.70;;;;;;5059446;28;20077;-61
2023/03/10 11:47:47;;;;;;;1.55;0.60;;;14.40;57.30;;;;;;5067290;28;20514;-62
2023/03/10 11:50:34;;;;;;;1.38;0.80;;;14.50;57.40;;;;;;5059534;28;20059;-63
2023/03/10 11:53:07;;;;;;;1.80;0.80;;;14.60;56.50;;;;;;5064778;28;20064;-62
2023/03/10 11:55:34;;;;;;;1.65;0.60;;;14.70;56.50;;;;;;5065324;28;20044;-63
2023/03/10 11:58:02;;;;;;;1.63;0.60;;;14.70;56.60;;;;;;5068570;28;20135;-63
2023/03/10 12:00:40;;;;;;;0.90;0.65;;;14.80;56.50;;;;;;5063353;28;20094;-62
2023/03/10 12:03:35;;;;;;;0.60;0.60;;;14.80;56.20;;;;;;5059437;28;20055;-64
2023/03/10 12:06:05;;;;;;;3.22;0.63;;;14.80;56.00;;;;;;5062340;28;20067;-65
2023/03/10 12:08:34;;;;;;;1.20;0.63;;;14.90;56.30;;;;;;5066993;28;20021;-63
2023/03/10 12:11:03;;;;;;;2.13;0.60;;;14.90;56.30;;;;;;5064832;28;20024;-62
2023/03/10 12:13:42;;;;;;;0.70;0.50;;;14.90;55.90;;;;;;5055874;28;20041;-63
2023/03/10 12:16:17;;;;;;;0.93;0.40;;;15.00;55.50;;;;;;5055966;28;20018;-64
2023/03/10 12:18:43;;;;;;;1.08;0.52;;;15.00;55.10;;;;;;5059485;28;20095;-65
2023/03/10 12:21:29;;;;;;;1.65;0.57;;;15.00;55.40;;;;;;5058355;28;20555;-62
2023/03/10 12:24:01;;;;;;;1.75;0.60;;;15.00;55.00;;;;;;5057602;28;20036;-64
2023/03/10 12:26:39;;;;;;;0.80;0.50;;;15.00;55.00;;;;;;5080850;28;20021;-63
2023/03/10 12:29:32;;;;;;;0.57;0.47;;;14.90;55.60;;;;;;5064086;28;20040;-62
2023/03/10 12:31:58;;;;;;;0.70;0.60;;;14.80;55.70;;;;;;5062322;28;20063;-62
2023/03/10 12:34:27;;;;;;;1.08;0.60;;;14.70;55.80;;;;;;5073390;28;20059;-63
2023/03/10 12:37:20;;;;;;;1.73;0.60;;;14.60;55.90;;;;;;5073918;28;20032;-63
2023/03/10 12:39:47;;;;;;;0.40;0.40;;;14.60;55.90;;;;;;5016066;28;20288;-64
2023/03/10 12:42:29;;;;;;;1.08;0.98;;;14.50;56.50;;;;;;5063719;28;20029;-63
2023/03/10 12:45:20;;;;;;;0.50;0.50;;;14.50;56.70;;;;;;5067735;28;20025;-66
2023/03/10 12:47:57;;;;;;;1.33;0.60;;;14.50;56.90;;;;;;5052653;28;20480;-62
2023/03/10 12:50:32;;;;;;;1.10;0.70;;;14.40;57.10;;;;;;5068964;28;20463;-66
2023/03/10 12:53:24;;;;;;;1.80;0.50;;;14.30;57.40;;;;;;5071774;28;20078;-63
2023/03/10 12:56:10;;;;;;;1.02;0.60;;;14.20;57.80;;;;;;5057721;28;20028;-65
2023/03/10 12:58:44;;;;;;;1.25;0.65;;;14.10;57.80;;;;;;5062472;28;20033;-63